This is the latest recevied weather packets stored in our database for station/object IW2HNF-3. If no packets are shown the sender has not sent any weather packets the latest 10 day(s).
| Time | Temp. | Humidity | Pressure | Rain* | Wind** | Luminosity | Snow |
|---|---|---|---|---|---|---|---|
| 1778080259 | 11.11° C | 99% | 1005.8 hPa | 25.15 mm | - | - | - |
| 1778079636 | 11.11° C | 99% | 1005.8 hPa | 31.5 mm | - | - | - |
| 1778079059 | 10.56° C | 99% | 1006.2 hPa | 48.01 mm | - | - | - |
| 1778078435 | 10° C | 99% | 1006.4 hPa | 74.93 mm | - | - | - |
| 1778077859 | 10° C | 99% | 1006.3 hPa | 87.38 mm | - | - | - |
| 1778077235 | 9.44° C | 99% | 1006.1 hPa | 84.33 mm | - | - | - |
| 1778076660 | 10° C | 98% | 1006.1 hPa | 77.47 mm | - | - | - |
| 1778076083 | 10° C | 95% | 1006.2 hPa | 71.12 mm | - | - | - |
| 1778075459 | 11.11° C | 92% | 1006.5 hPa | 52.83 mm | - | - | - |
| 1778074835 | 13.33° C | 90% | 1006.5 hPa | 22.61 mm | - | - | - |
| 1778074261 | 15° C | 88% | 1006.2 hPa | 5.08 mm | - | - | - |
| 1778073635 | 15° C | 88% | 1006.2 hPa | 1.52 mm | - | - | - |
| 1778073060 | 15.56° C | 88% | 1006.3 hPa | 0.51 mm | - | - | - |
| 1778072435 | 15.56° C | 88% | 1006.3 hPa | 1.02 mm | - | - | - |
| 1778071859 | 15.56° C | 88% | 1006.5 hPa | 0.25 mm | - | - | - |
| 1778071236 | 15.56° C | 88% | 1006.4 hPa | 0.25 mm | - | - | - |
| 1778070659 | 15.56° C | 86% | 1006.4 hPa | 0.25 mm | - | - | - |
| 1778070035 | 15.56° C | 86% | 1006.3 hPa | 0.25 mm | - | - | - |
| 1778069460 | 16.11° C | 84% | 1006.2 hPa | 0.25 mm | - | - | - |
| 1778069124 | 16.67° C | 82% | 1006.4 hPa | 0 mm | - | - | - |
| 1778068260 | 16.67° C | 83% | 1006.2 hPa | 0 mm | - | - | - |
| 1778067636 | 16.67° C | 82% | 1006.3 hPa | 0 mm | - | - | - |
| 1778067059 | 16.11° C | 85% | 1006.4 hPa | 0 mm | - | - | - |
| 1778066436 | 15.56° C | 86% | 1006.5 hPa | 0 mm | - | - | - |
| 1778065860 | 15° C | 87% | 1006.8 hPa | 0 mm | - | - | - |
* Rain latest hour (hover to see other rain measurements)
** Current wind speed in m/s (hover to see current wind gust speed)